Missal, Brazil
Current Conditions -  °F | °C
As of 6:00 PM on Saturday 20 Dec 2014 (Local Time) from SBFI Reporting Station
Scattered Clouds Scattered Clouds  
Wind Chill: 93°   Ceiling: Unl
Heat Index: 103°   Visibility: 6mi
Dew Point: 73°   Wind: 14mph
Humidity: 52%   Direction: 350°N
Pressure: 29.56"   Gusts: NA
Location:  25.09°S, 54.25°W
Report Text: SBFI 202000Z 35012KT 9999 SCT040 34/23 Q1001
Loading
Personal Weather Stations






























Interactive Weather Map New forecast layout! Learn more

10-Day Weather Forecast

Advertisements
Track Severe Weather on mobile